Time;durP1;ratioP1;P1;durP2;ratioP2;P2;SDS_P1;SDS_P2;PMS_P1;PMS_P2;Temp;Humidity;BMP_temperature;BMP_pressure;BME280_temperature;BME280_humidity;BME280_pressure;Samples;Min_cycle;Max_cycle;Signal;HPM_P1;HPM_P2
2023/09/30 03:48:52;;;;;;;5.10;3.20;;;13.80;1.00;;;;;;5019759;28;20425;-86
2023/09/30 03:51:18;;;;;;;7.50;4.00;;;13.90;1.00;;;;;;5018918;28;20385;-87
2023/09/30 03:53:45;;;;;;;5.70;3.55;;;13.80;1.00;;;;;;5021415;28;20393;-90
2023/09/30 03:56:13;;;;;;;5.50;3.20;;;13.80;1.00;;;;;;5023823;28;20383;-89
2023/09/30 03:58:43;;;;;;;6.43;3.60;;;14.00;1.00;;;;;;5002619;28;20513;-86
2023/09/30 04:01:11;;;;;;;5.15;3.50;;;13.90;1.00;;;;;;4994824;28;20426;-85
2023/09/30 04:03:39;;;;;;;5.77;3.50;;;13.80;1.00;;;;;;4989499;28;20541;-85
2023/09/30 04:06:13;;;;;;;5.47;3.40;;;17.60;1.00;;;;;;5002026;28;20766;-86
2023/09/30 04:08:39;;;;;;;6.90;3.80;;;16.70;1.00;;;;;;5001595;28;20394;-87
2023/09/30 04:11:05;;;;;;;6.57;4.40;;;13.80;1.00;;;;;;5012939;28;20398;-87
2023/09/30 04:13:31;;;;;;;5.47;3.33;;;13.70;1.00;;;;;;5006152;28;20833;-88
2023/09/30 04:15:58;;;;;;;5.43;3.60;;;13.80;1.00;;;;;;5000718;28;20402;-86
2023/09/30 04:18:27;;;;;;;6.15;3.30;;;16.00;1.00;;;;;;5002107;28;20384;-87
2023/09/30 04:20:53;;;;;;;5.45;3.53;;;13.80;1.00;;;;;;5000742;28;20414;-86
2023/09/30 04:23:20;;;;;;;5.90;3.45;;;15.70;1.00;;;;;;5000729;28;20406;-86
2023/09/30 04:25:46;;;;;;;5.75;3.72;;;13.90;1.00;;;;;;5000228;28;20391;-87
2023/09/30 04:28:13;;;;;;;7.63;3.60;;;13.80;1.00;;;;;;5003442;28;20468;-87
2023/09/30 04:30:39;;;;;;;6.90;3.70;;;15.50;1.00;;;;;;4993238;28;20392;-87
2023/09/30 04:33:05;;;;;;;5.63;3.00;;;13.80;1.00;;;;;;4992967;28;20415;-87
2023/09/30 04:35:31;;;;;;;5.93;3.60;;;16.00;1.00;;;;;;5005897;28;20442;-86
2023/09/30 04:38:01;;;;;;;6.05;3.55;;;13.50;1.00;;;;;;5006608;28;20407;-87
2023/09/30 04:40:30;;;;;;;5.97;3.42;;;16.10;1.00;;;;;;4990188;28;20392;-86
2023/09/30 04:42:58;;;;;;;5.97;3.50;;;13.40;1.00;;;;;;4979982;28;20503;-86
2023/09/30 04:45:35;;;;;;;7.43;4.03;;;13.40;1.00;;;;;;4984455;28;20398;-86
2023/09/30 04:48:04;;;;;;;4.13;3.13;;;13.40;1.00;;;;;;4992885;28;20473;-86
2023/09/30 04:50:30;;;;;;;7.60;3.60;;;13.50;1.00;;;;;;4980656;28;20822;-87
2023/09/30 04:52:56;;;;;;;7.57;4.00;;;13.60;1.00;;;;;;4980486;28;20495;-86
2023/09/30 04:55:27;;;;;;;6.03;3.90;;;12.50;1.00;;;;;;4981016;28;20395;-86
2023/09/30 04:57:52;;;;;;;6.80;5.00;;;14.60;1.00;;;;;;4998389;28;20441;-87
2023/09/30 05:00:24;;;;;;;7.57;5.20;;;13.50;1.00;;;;;;4991771;28;20404;-86
2023/09/30 05:02:52;;;;;;;7.85;4.65;;;13.50;1.00;;;;;;5000698;28;20412;-88
2023/09/30 05:05:18;;;;;;;8.30;4.50;;;15.50;1.00;;;;;;5011344;28;20391;-89
2023/09/30 05:07:49;;;;;;;8.20;4.00;;;13.20;1.00;;;;;;4997795;28;20400;-86
2023/09/30 05:10:16;;;;;;;6.50;3.70;;;13.90;1.00;;;;;;4992755;28;20927;-87
2023/09/30 05:12:54;;;;;;;10.52;3.80;;;16.10;1.00;;;;;;4977436;28;20400;-86
2023/09/30 05:15:23;;;;;;;5.72;3.50;;;15.80;1.00;;;;;;5001571;28;20403;-88
2023/09/30 05:17:49;;;;;;;6.25;3.80;;;14.00;1.00;;;;;;5003087;28;20415;-89
2023/09/30 05:20:19;;;;;;;5.40;3.80;;;14.10;1.00;;;;;;4997251;28;20400;-89
2023/09/30 05:22:51;;;;;;;6.03;3.05;;;15.10;1.00;;;;;;4989820;28;20480;-86
2023/09/30 05:25:24;;;;;;;7.10;4.00;;;15.30;1.00;;;;;;4990502;28;20463;-86
2023/09/30 05:27:50;;;;;;;6.50;3.55;;;13.90;1.00;;;;;;4983175;28;20385;-86
2023/09/30 05:30:29;;;;;;;4.93;3.60;;;13.80;1.00;;;;;;4995086;28;20485;-86
2023/09/30 05:33:00;;;;;;;5.25;3.75;;;13.60;1.00;;;;;;4979805;28;20866;-87
2023/09/30 05:35:32;;;;;;;6.38;3.40;;;15.60;1.00;;;;;;4998460;28;20529;-86
2023/09/30 05:37:58;;;;;;;5.68;3.40;;;15.40;1.00;;;;;;4986998;28;20404;-86
2023/09/30 05:40:26;;;;;;;6.15;3.70;;;13.00;1.00;;;;;;4998141;28;20454;-86
2023/09/30 05:43:01;;;;;;;5.30;3.08;;;17.10;1.00;;;;;;4999534;28;20448;-86
2023/09/30 05:45:30;;;;;;;6.95;3.65;;;13.90;1.00;;;;;;4998837;28;20450;-87
2023/09/30 05:48:02;;;;;;;6.57;3.53;;;14.30;1.00;;;;;;5012097;28;20402;-88
2023/09/30 05:50:31;;;;;;;7.38;4.15;;;14.30;1.00;;;;;;5006537;28;20417;-87
2023/09/30 05:53:00;;;;;;;5.20;3.70;;;14.30;1.00;;;;;;4999178;28;20402;-87
2023/09/30 05:55:25;;;;;;;6.90;3.50;;;14.30;1.00;;;;;;5006786;28;20394;-88
2023/09/30 05:58:00;;;;;;;5.70;3.40;;;14.20;1.00;;;;;;5005711;28;20453;-87
2023/09/30 06:00:30;;;;;;;5.32;3.70;;;17.30;1.00;;;;;;5004264;28;20398;-87
2023/09/30 06:02:57;;;;;;;6.38;3.40;;;17.00;1.00;;;;;;4994205;28;20412;-87
2023/09/30 06:05:22;;;;;;;6.03;3.65;;;14.00;1.00;;;;;;4996248;28;20426;-88
2023/09/30 06:07:51;;;;;;;6.90;3.70;;;15.80;1.00;;;;;;4994936;28;20450;-87
2023/09/30 06:10:20;;;;;;;5.67;3.70;;;17.40;1.00;;;;;;5018506;23;20453;-89
2023/09/30 06:13:03;;;;;;;4.78;3.30;;;14.10;1.00;;;;;;5012323;28;20421;-88
2023/09/30 06:15:41;;;;;;;6.75;3.80;;;16.20;1.00;;;;;;5010574;28;20406;-85
2023/09/30 06:18:14;;;;;;;7.32;4.22;;;14.00;1.00;;;;;;4978981;28;20399;-86
2023/09/30 06:20:41;;;;;;;6.10;3.70;;;16.30;1.00;;;;;;4979792;28;20412;-86
2023/09/30 06:23:09;;;;;;;6.78;3.58;;;14.20;1.00;;;;;;4983969;28;20426;-87
2023/09/30 06:25:41;;;;;;;8.02;4.50;;;15.30;1.00;;;;;;4982246;28;20768;-86
2023/09/30 06:28:07;;;;;;;6.35;4.10;;;14.10;1.00;;;;;;4989945;28;20389;-87
2023/09/30 06:30:33;;;;;;;7.65;3.90;;;13.90;1.00;;;;;;4992457;28;20396;-88
2023/09/30 06:33:04;;;;;;;7.80;4.30;;;13.60;1.00;;;;;;4991124;28;20404;-88
2023/09/30 06:35:37;;;;;;;6.50;3.70;;;14.10;1.00;;;;;;4991182;28;20399;-87
2023/09/30 06:38:03;;;;;;;6.90;4.03;;;14.00;1.00;;;;;;4992219;28;20407;-88
2023/09/30 06:40:28;;;;;;;7.80;3.90;;;14.20;1.00;;;;;;4991809;28;20467;-88
2023/09/30 06:42:54;;;;;;;7.63;4.23;;;14.20;1.00;;;;;;4992878;28;20434;-88
2023/09/30 06:45:23;;;;;;;6.15;3.83;;;16.30;1.00;;;;;;4992115;28;20411;-87
2023/09/30 06:47:54;;;;;;;9.35;4.15;;;14.20;1.00;;;;;;4995770;28;20412;-87
2023/09/30 06:50:21;;;;;;;6.78;3.58;;;14.50;1.00;;;;;;4991667;28;20447;-88
2023/09/30 06:52:49;;;;;;;7.18;4.00;;;14.40;1.00;;;;;;4986090;28;20404;-88
2023/09/30 06:55:18;;;;;;;4.40;3.55;;;14.40;1.00;;;;;;4989045;28;20408;-88
2023/09/30 06:57:47;;;;;;;5.82;3.80;;;14.50;1.00;;;;;;4994763;28;20400;-88
2023/09/30 07:00:13;;;;;;;6.47;3.33;;;14.70;1.00;;;;;;4997490;28;20451;-88
2023/09/30 07:02:40;;;;;;;6.00;3.80;;;14.80;1.00;;;;;;4995117;28;20415;-87
2023/09/30 07:05:09;;;;;;;6.28;3.10;;;15.00;1.00;;;;;;4994058;28;20399;-88
2023/09/30 07:07:35;;;;;;;5.57;2.75;;;15.10;1.00;;;;;;4989576;28;20440;-87
2023/09/30 07:10:14;;;;;;;5.63;3.35;;;14.30;1.00;;;;;;4993282;28;20451;-88
2023/09/30 07:12:44;;;;;;;7.18;3.70;;;15.20;1.00;;;;;;4986435;28;20411;-88
2023/09/30 07:15:10;;;;;;;7.75;3.85;;;15.30;1.00;;;;;;4994610;28;20451;-88
2023/09/30 07:17:37;;;;;;;8.80;3.37;;;15.30;1.00;;;;;;4992245;28;20411;-88
2023/09/30 07:20:04;;;;;;;6.38;3.90;;;15.50;1.00;;;;;;4987393;28;20400;-85
2023/09/30 07:22:43;;;;;;;4.72;3.47;;;16.10;1.00;;;;;;4988877;28;20402;-87
2023/09/30 07:25:09;;;;;;;6.60;4.35;;;16.30;1.00;;;;;;4987504;28;20498;-87
2023/09/30 07:27:46;;;;;;;5.50;3.50;;;15.60;1.00;;;;;;4987669;28;20400;-87
2023/09/30 07:30:17;;;;;;;6.43;4.30;;;17.10;1.00;;;;;;4989214;28;20418;-86
2023/09/30 07:32:51;;;;;;;6.55;4.00;;;15.60;1.00;;;;;;4987255;28;20395;-87
2023/09/30 07:35:16;;;;;;;7.45;3.50;;;15.60;1.00;;;;;;4990658;28;20407;-87
2023/09/30 07:37:43;;;;;;;6.90;3.90;;;15.90;1.00;;;;;;4993562;28;20780;-87
2023/09/30 07:40:14;;;;;;;6.28;3.70;;;18.00;1.00;;;;;;4993366;28;20427;-88
2023/09/30 07:42:43;;;;;;;5.93;3.40;;;16.00;1.00;;;;;;4990811;28;20472;-86
2023/09/30 07:45:16;;;;;;;8.00;3.95;;;14.50;1.00;;;;;;4986322;28;20890;-85
2023/09/30 07:47:43;;;;;;;5.00;3.53;;;17.30;1.00;;;;;;4986340;28;20392;-86
2023/09/30 07:50:12;;;;;;;6.32;3.42;;;19.80;1.00;;;;;;4985397;28;20467;-87
2023/09/30 07:52:40;;;;;;;7.28;3.70;;;16.50;1.00;;;;;;4984723;28;20400;-87
2023/09/30 07:55:05;;;;;;;5.70;3.50;;;15.40;1.00;;;;;;4983558;28;20427;-86
2023/09/30 07:57:36;;;;;;;5.93;4.00;;;15.20;1.00;;;;;;4982708;28;20423;-87
2023/09/30 08:00:09;;;;;;;9.25;3.70;;;16.60;1.00;;;;;;4990345;28;20384;-86
2023/09/30 08:02:40;;;;;;;7.10;3.70;;;18.10;1.00;;;;;;4994804;28;20435;-86
2023/09/30 08:05:06;;;;;;;7.13;4.07;;;16.80;1.00;;;;;;4991183;28;20415;-87
2023/09/30 08:07:32;;;;;;;6.90;3.65;;;16.80;1.00;;;;;;4990942;28;20404;-88
2023/09/30 08:10:04;;;;;;;5.70;4.03;;;19.40;1.00;;;;;;4997177;28;20427;-86
2023/09/30 08:12:32;;;;;;;6.40;4.18;;;18.30;1.00;;;;;;4988808;28;20411;-87
2023/09/30 08:14:58;;;;;;;7.83;3.77;;;16.90;1.00;;;;;;4988074;28;20466;-88
2023/09/30 08:17:27;;;;;;;6.70;3.67;;;19.50;1.00;;;;;;4992087;28;20396;-88
2023/09/30 08:19:55;;;;;;;6.70;4.00;;;16.00;1.00;;;;;;4992913;28;20427;-88
2023/09/30 08:22:25;;;;;;;7.65;3.90;;;16.60;1.00;;;;;;4993341;28;20433;-88
2023/09/30 08:24:51;;;;;;;6.45;3.72;;;14.00;1.00;;;;;;4999306;28;20423;-89
2023/09/30 08:27:17;;;;;;;6.77;3.80;;;17.20;1.00;;;;;;4998740;28;20400;-90
2023/09/30 08:29:42;;;;;;;7.00;4.03;;;17.20;1.00;;;;;;4998931;28;20415;-88
2023/09/30 08:32:08;;;;;;;7.10;3.90;;;19.80;1.00;;;;;;4992609;28;21034;-87
2023/09/30 08:34:33;;;;;;;6.47;3.60;;;16.20;1.00;;;;;;4987071;28;20519;-87
2023/09/30 08:36:59;;;;;;;6.20;3.60;;;21.00;1.00;;;;;;4984129;28;20462;-87
2023/09/30 08:39:24;;;;;;;5.70;4.00;;;19.10;1.00;;;;;;4986189;28;20420;-87
2023/09/30 08:41:50;;;;;;;5.03;3.47;;;18.90;1.00;;;;;;4984531;28;20450;-87
2023/09/30 08:44:16;;;;;;;7.07;3.70;;;17.60;1.00;;;;;;4982198;28;20762;-87
2023/09/30 08:46:43;;;;;;;6.40;3.60;;;17.50;1.00;;;;;;4979104;28;21004;-87
2023/09/30 08:49:11;;;;;;;6.45;3.78;;;17.30;1.00;;;;;;4985360;28;20380;-88
2023/09/30 08:51:36;;;;;;;6.60;3.55;;;20.10;1.00;;;;;;4982909;28;20397;-88
2023/09/30 08:54:03;;;;;;;5.22;3.25;;;17.30;1.00;;;;;;4986570;28;20415;-89
2023/09/30 08:56:32;;;;;;;6.78;3.72;;;17.40;1.00;;;;;;4983480;28;20461;-86
2023/09/30 08:59:01;;;;;;;6.05;3.22;;;19.80;1.00;;;;;;4979970;28;20396;-86
2023/09/30 09:01:27;;;;;;;8.37;3.20;;;17.10;1.00;;;;;;4981902;28;20388;-90
2023/09/30 09:03:53;;;;;;;5.65;3.40;;;17.90;1.00;;;;;;4985176;28;20392;-87
2023/09/30 09:06:24;;;;;;;6.20;3.03;;;18.50;1.00;;;;;;4984385;28;20392;-87
2023/09/30 09:08:51;;;;;;;4.70;3.13;;;19.40;1.00;;;;;;4986820;28;20896;-87
2023/09/30 09:11:17;;;;;;;4.80;2.85;;;16.40;1.00;;;;;;4984976;28;20411;-89
2023/09/30 09:13:53;;;;;;;7.65;3.28;;;19.50;1.00;;;;;;4983230;28;20411;-90
2023/09/30 09:16:19;;;;;;;4.67;3.20;;;20.30;1.00;;;;;;4984533;28;20402;-90
2023/09/30 09:18:47;;;;;;;6.27;3.40;;;19.60;1.00;;;;;;4993682;28;20764;-90
2023/09/30 09:21:23;;;;;;;5.68;3.03;;;17.80;1.00;;;;;;4990036;28;20404;-89
2023/09/30 09:23:51;;;;;;;6.75;3.15;;;19.50;1.00;;;;;;4978375;28;20424;-89
2023/09/30 09:26:26;;;;;;;6.00;3.45;;;19.40;1.00;;;;;;4983083;28;20408;-87
2023/09/30 09:29:03;;;;;;;4.20;2.80;;;18.00;1.00;;;;;;4990075;28;20393;-86
2023/09/30 09:32:16;;;;;;;6.38;3.30;;;17.90;1.00;;;;;;4984943;28;20414;-87
2023/09/30 09:35:00;;;;;;;4.40;3.40;;;20.70;1.00;;;;;;4961445;29;20410;-85
2023/09/30 09:37:25;;;;;;;6.60;3.80;;;17.90;1.00;;;;;;4953708;29;20406;-85
2023/09/30 09:40:22;;;;;;;6.75;3.60;;;18.10;1.00;;;;;;4954836;29;20401;-86
2023/09/30 09:42:53;;;;;;;6.00;3.00;;;18.30;1.00;;;;;;4958116;28;20408;-85
2023/09/30 09:45:41;;;;;;;6.15;3.38;;;18.20;1.00;;;;;;4985885;28;20400;-86
2023/09/30 09:48:41;;;;;;;5.70;2.90;;;20.70;1.00;;;;;;4985930;28;20404;-86
2023/09/30 09:51:14;;;;;;;5.05;3.28;;;21.10;1.00;;;;;;4992914;28;20407;-86
2023/09/30 09:53:44;;;;;;;6.20;3.30;;;18.30;1.00;;;;;;4991701;28;20920;-87
2023/09/30 09:56:20;;;;;;;4.45;3.10;;;18.30;1.00;;;;;;4984658;28;20400;-86
2023/09/30 09:58:50;;;;;;;4.78;3.30;;;18.60;1.00;;;;;;4982894;28;20427;-86
2023/09/30 10:01:26;;;;;;;4.90;3.10;;;21.60;1.00;;;;;;4978779;28;20500;-85
2023/09/30 10:04:00;;;;;;;5.70;2.67;;;18.70;1.00;;;;;;4976666;28;20486;-86
2023/09/30 10:06:29;;;;;;;5.85;3.50;;;18.70;1.00;;;;;;4979994;28;20455;-86
2023/09/30 10:09:08;;;;;;;4.32;3.10;;;19.50;1.00;;;;;;4976914;28;20400;-86
2023/09/30 10:11:37;;;;;;;5.88;3.30;;;19.00;1.00;;;;;;4975489;28;20396;-85
2023/09/30 10:14:11;;;;;;;6.18;3.35;;;19.00;1.00;;;;;;4975565;28;20460;-86
2023/09/30 10:16:37;;;;;;;4.70;3.00;;;20.70;1.00;;;;;;5107858;23;20448;-84
2023/09/30 10:19:19;;;;;;;5.15;3.33;;;19.20;1.00;;;;;;4975821;28;20392;-84
2023/09/30 10:22:18;;;;;;;5.13;2.92;;;21.60;1.00;;;;;;4983440;28;20872;-84
2023/09/30 10:24:45;;;;;;;5.22;3.20;;;21.30;1.00;;;;;;4975894;28;20458;-84
2023/09/30 10:27:37;;;;;;;6.72;3.45;;;19.20;1.00;;;;;;4961296;28;20468;-85
2023/09/30 10:30:19;;;;;;;5.30;3.33;;;17.90;1.00;;;;;;4953709;28;20397;-85
2023/09/30 10:33:17;;;;;;;6.80;3.30;;;19.40;1.00;;;;;;4963494;29;20486;-85
2023/09/30 10:35:53;;;;;;;4.38;2.70;;;17.60;1.00;;;;;;4961329;28;20401;-85
2023/09/30 10:45:04;;;;;;;6.57;3.10;;;19.90;1.00;;;;;;4952183;28;20409;-85
2023/09/30 10:47:32;;;;;;;4.97;2.87;;;19.90;1.00;;;;;;4975709;28;20402;-80
2023/09/30 10:50:08;;;;;;;;;;;;;;;;;;;;;
2023/09/30 10:53:07;;;;;;;6.07;3.20;;;20.20;1.00;;;;;;4955597;29;20402;-85
2023/09/30 10:56:19;;;;;;;4.28;3.10;;;23.00;1.00;;;;;;4956146;28;20401;-85
2023/09/30 11:02:51;;;;;;;5.90;2.70;;;20.80;1.00;;;;;;4928561;29;21007;-86
2023/09/30 11:09:00;;;;;;;6.53;3.58;;;19.80;1.00;;;;;;4958737;28;20420;-86
2023/09/30 11:11:59;;;;;;;6.00;3.80;;;24.10;1.00;;;;;;4934506;29;20402;-87
2023/09/30 11:23:58;;;;;;;5.72;3.70;;;22.30;1.00;;;;;;5002733;28;20430;-85
2023/09/30 11:26:37;;;;;;;7.35;4.47;;;23.10;1.00;;;;;;5016475;28;20401;-86
2023/09/30 11:33:02;;;;;;;7.68;4.25;;;22.40;1.00;;;;;;4998904;28;20378;-87
2023/09/30 11:39:51;;;;;;;8.13;4.68;;;22.50;1.00;;;;;;5002959;28;20452;-87
2023/09/30 12:02:41;;;;;;;8.10;4.97;;;21.20;1.00;;;;;;4980684;28;20395;-85
2023/09/30 12:05:55;;;;;;;8.18;5.30;;;25.20;1.00;;;;;;4990626;28;21005;-85
2023/09/30 12:11:43;;;;;;;9.90;5.20;;;23.10;1.00;;;;;;4996280;28;20368;-84
2023/09/30 12:14:41;;;;;;;;;;;;;;;;;;;;;
2023/09/30 12:17:30;;;;;;;8.13;5.15;;;25.60;1.00;;;;;;5003113;28;20392;-86
2023/09/30 12:20:21;;;;;;;9.43;5.70;;;23.40;1.00;;;;;;4993534;28;20404;-85
2023/09/30 12:23:08;;;;;;;7.45;5.03;;;23.70;1.00;;;;;;5010424;28;20471;-85
2023/09/30 12:25:43;;;;;;;7.90;5.00;;;24.10;1.00;;;;;;5006824;28;20756;-87
2023/09/30 12:31:41;;;;;;;;;;;;;;;;;;;;;
2023/09/30 12:34:06;;;;;;;9.38;5.05;;;22.10;1.00;;;;;;5000189;28;20466;-85
2023/09/30 12:39:47;;;;;;;8.10;5.38;;;24.10;1.00;;;;;;4993541;28;20771;-85
2023/09/30 12:42:25;;;;;;;8.10;5.60;;;24.30;1.00;;;;;;4994764;28;20406;-86
2023/09/30 12:52:31;;;;;;;9.45;5.88;;;22.70;1.00;;;;;;4965619;28;20407;-86
2023/09/30 12:55:38;;;;;;;7.93;5.47;;;24.50;1.00;;;;;;4999925;28;20394;-85
2023/09/30 12:58:59;;;;;;;8.57;5.72;;;21.40;1.00;;;;;;5008992;28;20409;-85
2023/09/30 13:02:35;;;;;;;10.05;6.00;;;20.50;1.00;;;;;;4985902;28;20394;-86
2023/09/30 13:08:38;;;;;;;9.93;6.40;;;23.70;1.00;;;;;;4992177;28;20396;-84
2023/09/30 13:11:53;;;;;;;10.32;5.97;;;21.80;1.00;;;;;;5007192;28;20816;-86
2023/09/30 13:15:02;;;;;;;7.43;5.50;;;24.40;1.00;;;;;;4984112;28;20394;-86
2023/09/30 13:35:52;;;;;;;10.77;6.88;;;22.30;1.00;;;;;;4896054;29;20397;-86
2023/09/30 13:38:18;;;;;;;10.00;5.68;;;22.10;1.00;;;;;;4884466;29;20890;-86
2023/09/30 13:40:58;;;;;;;10.70;6.43;;;24.00;1.00;;;;;;4998431;28;20390;-86
2023/09/30 13:43:23;;;;;;;9.57;6.20;;;20.20;1.00;;;;;;5021462;28;20438;-86
2023/09/30 13:46:00;;;;;;;9.73;6.50;;;21.70;1.00;;;;;;5003228;28;20391;-86
2023/09/30 13:48:57;;;;;;;9.53;6.10;;;22.60;1.00;;;;;;5000633;28;20382;-86
2023/09/30 13:51:31;;;;;;;9.90;5.90;;;23.20;1.00;;;;;;4989288;28;20418;-86
2023/09/30 13:53:57;;;;;;;10.83;6.13;;;21.70;1.00;;;;;;4999726;28;20422;-86
2023/09/30 13:56:33;;;;;;;11.27;6.45;;;22.70;1.00;;;;;;4997651;28;20783;-86
2023/09/30 13:59:10;;;;;;;9.25;5.70;;;23.00;1.00;;;;;;4998071;28;20771;-86
2023/09/30 14:01:49;;;;;;;9.27;5.50;;;21.30;1.00;;;;;;4999374;28;20449;-85
2023/09/30 14:04:17;;;;;;;8.52;5.95;;;21.10;1.00;;;;;;4999085;28;20478;-87
2023/09/30 14:06:52;;;;;;;10.60;6.07;;;23.20;1.00;;;;;;5003991;23;20442;-84
2023/09/30 14:09:30;;;;;;;9.02;5.50;;;24.80;1.00;;;;;;4999102;28;20395;-85
2023/09/30 14:12:01;;;;;;;10.00;5.87;;;21.80;1.00;;;;;;4998477;28;20823;-86
2023/09/30 14:14:34;;;;;;;9.02;5.30;;;22.60;1.00;;;;;;4997817;28;20402;-85
2023/09/30 14:16:59;;;;;;;10.30;6.15;;;21.60;1.00;;;;;;5009154;28;20387;-86
2023/09/30 14:19:37;;;;;;;9.20;5.70;;;21.60;1.00;;;;;;5015901;28;20402;-85
2023/09/30 14:22:49;;;;;;;9.97;6.00;;;23.50;1.00;;;;;;5014684;28;20489;-86
2023/09/30 14:25:50;;;;;;;11.07;6.60;;;22.50;1.00;;;;;;4991588;28;20407;-85
2023/09/30 14:28:23;;;;;;;8.55;5.50;;;20.70;1.00;;;;;;4999833;28;20405;-87
2023/09/30 14:31:12;;;;;;;10.48;6.20;;;22.40;1.00;;;;;;4996882;28;20398;-86
2023/09/30 14:34:29;;;;;;;9.07;5.85;;;22.40;1.00;;;;;;4977994;28;20433;-86
2023/09/30 14:39:40;;;;;;;8.85;6.32;;;21.90;1.00;;;;;;5012723;28;20470;-86
2023/09/30 14:48:42;;;;;;;10.73;6.57;;;24.00;1.00;;;;;;4922391;29;20424;-85
2023/09/30 14:51:10;;;;;;;9.85;6.53;;;21.80;1.00;;;;;;4990297;28;20396;-86
2023/09/30 14:53:54;;;;;;;10.65;6.88;;;23.30;1.00;;;;;;4975330;28;20400;-85
2023/09/30 14:56:28;;;;;;;10.82;6.50;;;21.90;1.00;;;;;;4979722;28;20415;-85
2023/09/30 14:59:23;;;;;;;11.70;6.93;;;22.50;1.00;;;;;;4989669;28;20398;-86
2023/09/30 15:01:49;;;;;;;10.50;6.43;;;24.40;1.00;;;;;;5007205;23;21273;-83
2023/09/30 15:04:15;;;;;;;11.00;6.67;;;22.10;1.00;;;;;;4995725;28;20406;-83
2023/09/30 15:06:41;;;;;;;10.70;6.90;;;22.40;1.00;;;;;;5003235;28;20474;-83
2023/09/30 15:09:09;;;;;;;11.55;6.75;;;21.90;1.00;;;;;;5001111;28;20467;-83
2023/09/30 15:11:35;;;;;;;10.03;6.57;;;22.20;1.00;;;;;;5013263;28;20397;-82
2023/09/30 15:14:01;;;;;;;10.50;6.60;;;21.50;1.00;;;;;;5008311;28;20391;-82
2023/09/30 15:16:26;;;;;;;11.00;7.00;;;21.20;1.00;;;;;;5021871;28;20402;-81
2023/09/30 15:18:52;;;;;;;9.77;6.00;;;21.60;1.00;;;;;;5026817;28;20370;-83
2023/09/30 15:21:17;;;;;;;8.63;5.40;;;21.10;1.00;;;;;;5019048;28;20411;-81
2023/09/30 15:23:43;;;;;;;8.93;6.23;;;21.10;1.00;;;;;;5025086;28;20472;-83
2023/09/30 15:26:09;;;;;;;9.85;6.47;;;21.00;1.00;;;;;;5010877;28;20410;-82
2023/09/30 15:28:35;;;;;;;14.02;6.85;;;21.10;1.00;;;;;;5010566;28;21006;-81
2023/09/30 15:31:01;;;;;;;8.38;5.70;;;20.80;1.00;;;;;;5017364;28;20390;-80
2023/09/30 15:33:28;;;;;;;10.47;6.57;;;21.30;1.00;;;;;;5018483;28;20397;-81
2023/09/30 15:35:53;;;;;;;10.85;6.75;;;21.10;1.00;;;;;;5017128;28;20386;-81
2023/09/30 15:38:19;;;;;;;10.07;6.60;;;21.00;1.00;;;;;;5010643;28;20409;-82
2023/09/30 15:41:01;;;;;;;12.20;7.18;;;20.40;1.00;;;;;;5013546;28;20394;-82
2023/09/30 15:43:27;;;;;;;10.30;6.50;;;21.00;1.00;;;;;;5009486;28;20501;-81
2023/09/30 15:45:53;;;;;;;10.40;6.63;;;20.90;1.00;;;;;;5008891;28;20902;-82
2023/09/30 15:48:19;;;;;;;9.73;6.47;;;22.10;1.00;;;;;;5008334;28;20386;-81
2023/09/30 15:50:45;;;;;;;9.90;6.10;;;20.90;1.00;;;;;;5006409;28;20390;-82
2023/09/30 15:53:11;;;;;;;11.57;7.43;;;20.60;1.00;;;;;;5008115;28;20440;-82
2023/09/30 15:55:37;;;;;;;12.07;6.80;;;20.60;1.00;;;;;;5008850;28;20473;-83
2023/09/30 15:58:04;;;;;;;10.98;6.40;;;20.20;1.00;;;;;;5008285;28;20398;-82
2023/09/30 16:00:30;;;;;;;9.75;6.53;;;20.50;1.00;;;;;;5007835;28;20430;-82
2023/09/30 16:02:57;;;;;;;14.25;7.70;;;20.30;1.00;;;;;;5008803;28;20465;-82
2023/09/30 16:05:23;;;;;;;11.07;7.13;;;19.60;1.00;;;;;;5008822;28;20459;-83
2023/09/30 16:07:48;;;;;;;10.83;6.40;;;19.70;1.00;;;;;;5008503;28;20394;-82
2023/09/30 16:10:15;;;;;;;10.38;6.80;;;20.00;1.00;;;;;;5011251;28;20398;-82
2023/09/30 16:12:41;;;;;;;8.95;6.10;;;19.90;1.00;;;;;;5017594;28;20398;-81
2023/09/30 16:15:10;;;;;;;10.10;6.65;;;19.40;1.00;;;;;;5013917;28;20394;-82
2023/09/30 16:17:36;;;;;;;13.25;7.68;;;19.60;1.00;;;;;;5015719;28;20447;-81
2023/09/30 16:20:04;;;;;;;10.70;6.70;;;19.50;1.00;;;;;;5021738;28;21069;-81
2023/09/30 16:22:30;;;;;;;10.07;6.60;;;19.30;1.00;;;;;;5007799;28;20414;-82
2023/09/30 16:24:56;;;;;;;11.43;6.70;;;19.10;1.00;;;;;;5006110;28;20417;-82
2023/09/30 16:27:22;;;;;;;10.73;7.07;;;18.50;1.00;;;;;;5006206;28;20394;-82
2023/09/30 16:29:48;;;;;;;11.00;6.50;;;18.90;1.00;;;;;;5009011;28;20394;-83
2023/09/30 16:32:14;;;;;;;12.02;7.30;;;18.80;1.00;;;;;;5004878;28;20965;-83
2023/09/30 16:34:39;;;;;;;9.93;6.33;;;18.10;1.00;;;;;;5004215;28;20453;-82
2023/09/30 16:37:05;;;;;;;10.48;6.90;;;18.20;1.00;;;;;;5004144;28;20491;-82
2023/09/30 16:39:31;;;;;;;11.13;6.80;;;18.10;1.00;;;;;;5005741;28;20456;-82
2023/09/30 16:41:56;;;;;;;11.17;6.97;;;18.40;1.00;;;;;;5004602;28;20429;-82
2023/09/30 16:44:22;;;;;;;10.10;6.23;;;18.40;1.00;;;;;;5004752;28;20402;-82
2023/09/30 16:46:49;;;;;;;11.32;6.78;;;18.40;1.00;;;;;;5004769;28;20411;-82
2023/09/30 16:49:15;;;;;;;11.75;7.18;;;18.20;1.00;;;;;;5007480;28;20402;-82
2023/09/30 16:51:41;;;;;;;11.57;6.20;;;18.20;1.00;;;;;;5008578;28;20428;-83
2023/09/30 16:54:08;;;;;;;11.80;7.10;;;17.30;1.00;;;;;;5014243;28;20395;-82
2023/09/30 16:56:33;;;;;;;11.43;7.20;;;17.90;1.00;;;;;;5017816;28;20402;-82
2023/09/30 16:58:59;;;;;;;11.68;7.15;;;17.90;1.00;;;;;;5006128;28;20421;-82
2023/09/30 17:01:25;;;;;;;11.13;7.00;;;17.80;1.00;;;;;;5007138;28;20398;-82
2023/09/30 17:03:50;;;;;;;12.37;7.17;;;17.20;1.00;;;;;;5007010;28;20471;-82
2023/09/30 17:06:16;;;;;;;13.10;7.50;;;17.70;1.00;;;;;;5006119;28;20391;-82
2023/09/30 17:08:41;;;;;;;10.90;6.90;;;17.70;1.00;;;;;;5005856;28;20398;-82
2023/09/30 17:11:07;;;;;;;12.48;7.18;;;17.70;1.00;;;;;;5005359;28;20445;-82
2023/09/30 17:13:33;;;;;;;12.07;7.38;;;17.20;1.00;;;;;;5005876;28;20910;-82
2023/09/30 17:15:58;;;;;;;10.93;7.45;;;17.50;1.00;;;;;;5005859;28;20406;-82
2023/09/30 17:18:24;;;;;;;12.53;6.97;;;16.90;1.00;;;;;;5003786;28;20399;-82
2023/09/30 17:20:51;;;;;;;11.30;7.30;;;18.30;1.00;;;;;;5004471;28;20462;-82
2023/09/30 17:23:17;;;;;;;12.33;7.43;;;17.20;1.00;;;;;;5002617;28;20417;-82
2023/09/30 17:25:43;;;;;;;11.90;7.60;;;17.10;1.00;;;;;;5003132;28;20426;-82
2023/09/30 17:28:08;;;;;;;10.80;7.78;;;17.10;1.00;;;;;;5004553;28;20405;-82
2023/09/30 17:30:34;;;;;;;12.30;7.57;;;17.00;1.00;;;;;;5005166;28;20906;-82
2023/09/30 17:33:00;;;;;;;15.82;8.13;;;16.30;1.00;;;;;;5008639;28;20398;-82
2023/09/30 17:35:26;;;;;;;10.30;7.25;;;16.70;1.00;;;;;;5002783;28;20418;-83
2023/09/30 17:37:52;;;;;;;12.67;7.80;;;16.70;1.00;;;;;;5003142;28;20906;-83
2023/09/30 17:40:18;;;;;;;12.10;7.83;;;16.70;1.00;;;;;;5003000;28;20398;-83
2023/09/30 17:42:43;;;;;;;13.45;8.13;;;16.40;1.00;;;;;;5001505;28;20410;-83
2023/09/30 17:45:10;;;;;;;12.50;7.70;;;16.40;1.00;;;;;;5003140;28;20413;-83
2023/09/30 17:47:35;;;;;;;12.70;7.82;;;16.40;1.00;;;;;;5003947;28;20406;-82
2023/09/30 17:50:01;;;;;;;12.60;8.00;;;16.50;1.00;;;;;;5007237;28;20391;-82
2023/09/30 17:52:28;;;;;;;11.00;7.47;;;16.40;1.00;;;;;;5009262;28;20405;-82
2023/09/30 17:54:53;;;;;;;12.63;8.05;;;16.40;1.00;;;;;;5002913;28;20398;-82
2023/09/30 17:57:19;;;;;;;11.63;7.25;;;16.30;1.00;;;;;;5004918;28;20406;-82
2023/09/30 17:59:44;;;;;;;14.80;8.07;;;16.20;1.00;;;;;;5006770;28;20414;-82
2023/09/30 18:02:10;;;;;;;12.07;7.77;;;16.20;1.00;;;;;;5010953;28;20450;-82
2023/09/30 18:04:41;;;;;;;13.45;8.10;;;16.10;1.00;;;;;;5007126;28;20434;-82
2023/09/30 18:07:07;;;;;;;11.60;8.10;;;16.20;1.00;;;;;;5007379;28;20873;-82
2023/09/30 18:09:33;;;;;;;11.10;8.00;;;16.00;1.00;;;;;;5006584;28;20406;-83
2023/09/30 18:11:58;;;;;;;11.50;7.30;;;15.90;1.00;;;;;;5006050;28;20936;-83
2023/09/30 18:14:24;;;;;;;14.02;8.38;;;15.90;1.00;;;;;;5006543;28;20430;-83
2023/09/30 18:16:50;;;;;;;11.60;7.03;;;15.80;1.00;;;;;;5005499;28;20402;-82
2023/09/30 18:19:17;;;;;;;12.47;7.77;;;16.40;1.00;;;;;;5005570;28;20406;-83
2023/09/30 18:21:43;;;;;;;13.50;8.45;;;15.80;1.00;;;;;;5006693;28;20408;-83
2023/09/30 18:24:08;;;;;;;12.15;7.32;;;15.50;1.00;;;;;;5005225;28;20509;-83
2023/09/30 18:26:34;;;;;;;10.83;7.40;;;15.90;1.00;;;;;;5004449;28;20398;-82
2023/09/30 18:29:01;;;;;;;11.87;7.10;;;15.90;1.00;;;;;;5003426;28;21017;-83
2023/09/30 18:31:26;;;;;;;11.95;7.80;;;16.00;1.00;;;;;;5004993;28;20740;-83
2023/09/30 18:33:52;;;;;;;12.68;7.50;;;15.70;1.00;;;;;;5004940;28;20394;-82
2023/09/30 18:36:19;;;;;;;12.75;7.25;;;15.60;1.00;;;;;;5003484;28;20454;-83
2023/09/30 18:38:46;;;;;;;13.93;7.45;;;15.70;1.00;;;;;;5003507;28;20405;-83
2023/09/30 18:41:16;;;;;;;14.75;8.23;;;14.80;1.00;;;;;;5003111;28;20394;-82
2023/09/30 18:43:51;;;;;;;12.60;7.50;;;15.60;1.00;;;;;;5004843;28;20406;-83
2023/09/30 18:46:17;;;;;;;13.05;7.50;;;16.30;1.00;;;;;;5004883;28;20426;-83
2023/09/30 18:48:42;;;;;;;12.48;7.75;;;15.50;1.00;;;;;;5002523;28;20429;-83